Time;durP1;ratioP1;P1;durP2;ratioP2;P2;SDS_P1;SDS_P2;PMS_P1;PMS_P2;Temp;Humidity;BMP_temperature;BMP_pressure;BME280_temperature;BME280_humidity;BME280_pressure;Samples;Min_cycle;Max_cycle;Signal;HPM_P1;HPM_P2
2022/08/19 00:00:08;;;;;;;15.67;11.63;;;19.30;15.90;;;;;;5098239;28;20392;-69
2022/08/19 00:02:34;;;;;;;21.13;13.10;;;19.20;3.30;;;;;;5097823;28;20498;-69
2022/08/19 00:05:00;;;;;;;21.27;12.60;;;19.10;8.10;;;;;;5097052;28;20458;-75
2022/08/19 00:07:26;;;;;;;25.03;13.20;;;19.10;14.60;;;;;;5097101;28;20403;-75
2022/08/19 00:09:55;;;;;;;20.60;12.40;;;19.10;15.80;;;;;;5079134;28;20408;-75
2022/08/19 00:12:21;;;;;;;27.37;15.73;;;19.10;22.80;;;;;;5098543;28;20431;-69
2022/08/19 00:14:47;;;;;;;25.70;13.37;;;19.10;24.40;;;;;;5096828;28;20505;-75
2022/08/19 00:17:13;;;;;;;22.53;14.10;;;19.10;25.40;;;;;;5096065;28;20455;-69
2022/08/19 00:19:40;;;;;;;25.20;14.00;;;19.10;38.40;;;;;;5097184;28;20495;-68
2022/08/19 00:25:46;;;;;;;27.40;15.00;;;19.10;41.60;;;;;;5066561;28;20453;-75
2022/08/19 00:28:12;;;;;;;18.03;13.77;;;19.00;41.50;;;;;;5095745;28;20431;-75
2022/08/19 00:30:38;;;;;;;19.60;12.70;;;19.10;73.90;;;;;;5096255;28;20487;-69
2022/08/19 00:33:08;;;;;;;28.47;13.10;;;19.10;77.40;;;;;;5096568;28;20408;-74
2022/08/19 00:35:34;;;;;;;18.00;13.50;;;19.10;87.70;;;;;;5095945;28;20434;-69
2022/08/19 00:37:59;;;;;;;24.00;13.57;;;19.20;87.80;;;;;;5095337;28;20467;-76
2022/08/19 00:40:26;;;;;;;19.03;12.90;;;19.30;87.90;;;;;;5097540;28;20445;-73
2022/08/19 00:42:55;;;;;;;21.80;13.10;;;19.20;78.50;;;;;;5096266;28;20170;-69
2022/08/19 00:45:24;;;;;;;16.53;12.50;;;19.20;79.00;;;;;;5096140;28;20438;-75
2022/08/19 00:47:50;;;;;;;19.20;13.73;;;19.20;70.80;;;;;;5095227;28;20450;-74
2022/08/19 00:50:18;;;;;;;34.33;14.20;;;19.10;73.80;;;;;;5097229;28;20395;-69
2022/08/19 00:52:50;;;;;;;28.90;15.30;;;19.10;71.60;;;;;;5077539;28;20184;-69
2022/08/19 00:55:25;;;;;;;28.50;13.33;;;19.00;70.60;;;;;;5095994;28;20408;-69
2022/08/19 00:58:04;;;;;;;19.53;14.03;;;19.00;75.60;;;;;;5094027;28;20455;-75
2022/08/19 01:00:31;;;;;;;25.80;14.17;;;19.00;80.90;;;;;;5096017;28;20384;-75
2022/08/19 01:02:57;;;;;;;25.80;15.13;;;19.00;81.60;;;;;;5096064;28;20903;-75
2022/08/19 01:05:27;;;;;;;20.00;15.43;;;19.00;87.60;;;;;;5096057;28;20427;-75
2022/08/19 01:07:55;;;;;;;21.80;14.00;;;19.10;87.70;;;;;;5094581;28;20420;-75
2022/08/19 01:10:25;;;;;;;21.17;12.93;;;19.10;87.70;;;;;;5096305;28;20399;-76
2022/08/19 01:12:52;;;;;;;23.13;15.57;;;19.10;87.80;;;;;;5096002;28;20922;-69
2022/08/19 01:15:24;;;;;;;20.97;13.33;;;19.10;87.70;;;;;;5095920;28;20431;-75
2022/08/19 01:17:51;;;;;;;20.83;13.80;;;19.00;87.60;;;;;;5094740;28;20459;-69
2022/08/19 01:20:20;;;;;;;27.20;14.47;;;19.10;87.70;;;;;;5095793;28;20487;-75
2022/08/19 01:22:54;;;;;;;22.23;14.17;;;19.10;87.70;;;;;;5095505;28;20419;-69
2022/08/19 01:25:25;;;;;;;32.13;13.90;;;19.10;87.80;;;;;;5095361;28;20921;-69
2022/08/19 01:27:55;;;;;;;23.10;13.63;;;19.20;89.40;;;;;;5094119;28;20419;-69
2022/08/19 01:30:30;;;;;;;23.60;13.13;;;19.20;90.00;;;;;;5095459;28;20465;-75
2022/08/19 01:33:00;;;;;;;27.63;13.40;;;19.20;87.70;;;;;;5095402;28;20921;-69
2022/08/19 01:35:28;;;;;;;19.63;13.70;;;19.10;87.70;;;;;;5095651;28;20418;-69
2022/08/19 01:37:57;;;;;;;25.33;12.10;;;19.20;87.80;;;;;;5094948;28;20819;-69
2022/08/19 01:40:26;;;;;;;25.97;15.57;;;19.20;87.80;;;;;;5076880;28;20416;-71
2022/08/19 01:42:55;;;;;;;18.57;13.70;;;19.20;87.80;;;;;;5095272;28;20490;-69
2022/08/19 01:45:24;;;;;;;27.00;14.87;;;19.20;87.80;;;;;;5095259;28;20399;-75
2022/08/19 01:47:51;;;;;;;22.40;13.00;;;19.20;87.80;;;;;;5094138;28;20423;-75
2022/08/19 01:50:16;;;;;;;27.67;15.20;;;19.10;87.80;;;;;;5095151;28;20489;-75
2022/08/19 01:52:44;;;;;;;27.13;16.00;;;19.20;91.70;;;;;;5076689;28;20495;-74
2022/08/19 01:55:36;;;;;;;35.43;15.07;;;19.20;94.00;;;;;;5095087;28;20594;-75
2022/08/19 01:58:05;;;;;;;29.23;16.00;;;19.30;95.60;;;;;;5088632;28;20546;-69
2022/08/19 02:00:32;;;;;;;29.60;15.97;;;19.30;93.90;;;;;;5094609;28;20410;-74
2022/08/19 02:02:58;;;;;;;26.60;14.80;;;19.30;91.30;;;;;;5093998;28;20892;-69
2022/08/19 02:05:24;;;;;;;25.20;16.00;;;19.30;91.40;;;;;;5095860;28;20403;-69
2022/08/19 02:07:50;;;;;;;21.80;13.80;;;19.30;88.00;;;;;;5093858;28;20932;-75
2022/08/19 02:10:21;;;;;;;38.87;16.40;;;19.30;88.00;;;;;;5076472;28;20162;-75
2022/08/19 02:12:57;;;;;;;24.40;15.17;;;19.20;87.70;;;;;;5094483;28;20920;-74
2022/08/19 02:15:24;;;;;;;22.90;14.40;;;19.10;87.70;;;;;;5094837;28;20468;-69
2022/08/19 02:17:50;;;;;;;27.53;13.83;;;19.20;90.80;;;;;;5093231;28;20462;-70
2022/08/19 02:20:16;;;;;;;26.03;14.67;;;19.20;91.70;;;;;;5094688;28;20400;-75
2022/08/19 02:22:55;;;;;;;30.47;15.50;;;19.20;91.60;;;;;;5094395;28;20167;-69
2022/08/19 02:25:21;;;;;;;27.73;15.60;;;19.20;92.40;;;;;;5094215;28;20411;-69
2022/08/19 02:27:47;;;;;;;33.47;16.47;;;19.10;87.70;;;;;;5093598;28;20430;-69
2022/08/19 02:30:16;;;;;;;35.83;16.27;;;19.10;87.90;;;;;;5076305;28;20174;-75
2022/08/19 02:32:45;;;;;;;24.47;14.93;;;19.00;87.60;;;;;;5076106;28;20423;-76
2022/08/19 02:35:12;;;;;;;27.30;15.70;;;19.10;87.70;;;;;;5094384;28;20407;-75
2022/08/19 02:40:22;;;;;;;34.93;15.93;;;19.00;87.60;;;;;;5094033;28;20748;-74
2022/08/19 02:42:50;;;;;;;33.57;15.83;;;19.00;87.60;;;;;;5094071;28;20400;-68
2022/08/19 02:45:19;;;;;;;24.50;15.13;;;19.00;87.70;;;;;;5094221;28;20173;-75
2022/08/19 02:47:45;;;;;;;30.60;15.67;;;18.90;89.30;;;;;;5093673;28;20451;-69
2022/08/19 02:50:12;;;;;;;29.20;16.10;;;18.90;92.70;;;;;;5093797;28;20915;-75
2022/08/19 02:52:38;;;;;;;20.97;14.83;;;19.00;93.70;;;;;;5093631;28;20173;-72
2022/08/19 02:55:05;;;;;;;32.77;17.60;;;19.00;92.20;;;;;;5093265;28;20399;-74
2022/08/19 02:57:31;;;;;;;24.53;13.90;;;19.00;93.10;;;;;;5093857;28;20455;-75
2022/08/19 02:59:58;;;;;;;30.07;16.00;;;19.00;91.00;;;;;;5094534;28;20403;-68
2022/08/19 03:02:24;;;;;;;23.50;14.70;;;19.00;91.00;;;;;;5093689;28;20392;-70
2022/08/19 03:04:52;;;;;;;24.47;15.30;;;19.00;91.80;;;;;;5094120;28;20783;-68
2022/08/19 03:07:18;;;;;;;25.63;15.50;;;19.10;93.00;;;;;;5092462;28;20431;-75
2022/08/19 03:09:44;;;;;;;28.67;14.77;;;19.10;90.50;;;;;;5093420;28;20436;-75
2022/08/19 03:12:10;;;;;;;21.77;14.93;;;19.10;87.70;;;;;;5092969;28;20495;-68
2022/08/19 03:14:36;;;;;;;31.53;14.67;;;19.10;87.80;;;;;;5075894;28;20169;-68
2022/08/19 03:17:07;;;;;;;30.53;13.90;;;19.10;87.70;;;;;;5093350;28;20451;-68
2022/08/19 03:19:33;;;;;;;23.33;15.70;;;19.20;87.80;;;;;;5093453;28;20396;-68
2022/08/19 03:21:59;;;;;;;22.73;13.93;;;19.20;87.80;;;;;;5092578;28;20406;-75
2022/08/19 03:24:27;;;;;;;24.43;14.47;;;19.20;87.80;;;;;;5093256;28;20514;-70
2022/08/19 03:27:34;;;;;;;28.20;16.20;;;19.20;87.70;;;;;;5092703;28;20176;-75
2022/08/19 03:30:01;;;;;;;28.40;15.53;;;19.30;86.40;;;;;;5093605;28;20400;-68
2022/08/19 03:32:27;;;;;;;27.40;13.93;;;19.30;81.50;;;;;;5092837;28;20753;-75
2022/08/19 03:34:56;;;;;;;34.17;15.13;;;19.30;73.10;;;;;;5093722;28;20415;-74
2022/08/19 03:37:22;;;;;;;23.87;13.33;;;19.20;67.80;;;;;;5092131;28;20280;-75
2022/08/19 03:39:48;;;;;;;28.90;15.90;;;19.20;68.40;;;;;;5093158;28;20545;-68
2022/08/19 03:42:14;;;;;;;29.53;15.50;;;19.20;65.90;;;;;;5093392;28;20169;-75
2022/08/19 03:44:42;;;;;;;29.80;14.43;;;19.30;62.60;;;;;;5093320;28;20641;-75
2022/08/19 03:47:07;;;;;;;18.50;13.90;;;19.20;60.10;;;;;;5092394;28;20768;-75
2022/08/19 03:49:35;;;;;;;29.90;13.67;;;19.20;58.60;;;;;;5092649;28;20502;-75
2022/08/19 03:52:07;;;;;;;23.13;15.87;;;19.20;59.80;;;;;;5092654;28;20711;-69
2022/08/19 03:54:33;;;;;;;24.70;14.07;;;19.20;58.00;;;;;;5093598;28;20431;-75
2022/08/19 03:56:59;;;;;;;29.90;15.17;;;19.20;60.10;;;;;;5091370;28;20458;-69
2022/08/19 03:59:28;;;;;;;25.10;15.93;;;19.20;62.90;;;;;;5093172;28;20951;-75
2022/08/19 04:02:00;;;;;;;29.20;17.00;;;19.30;63.00;;;;;;5093953;28;20404;-68
2022/08/19 04:04:26;;;;;;;21.33;13.03;;;19.30;61.90;;;;;;5092937;28;20928;-68
2022/08/19 04:06:53;;;;;;;23.90;15.13;;;19.30;57.30;;;;;;5092152;28;20411;-76
2022/08/19 04:09:20;;;;;;;28.93;16.33;;;19.30;58.70;;;;;;5092858;28;20426;-75
2022/08/19 04:11:53;;;;;;;35.30;15.47;;;19.30;60.40;;;;;;5092494;28;20946;-72
2022/08/19 04:14:24;;;;;;;27.13;13.10;;;19.30;57.60;;;;;;5092929;28;20391;-68
2022/08/19 04:16:50;;;;;;;29.43;13.50;;;19.30;57.90;;;;;;5092455;28;21156;-69
2022/08/19 04:19:19;;;;;;;30.80;15.70;;;19.40;61.90;;;;;;5093450;28;20498;-68
2022/08/19 04:21:48;;;;;;;25.63;15.63;;;19.40;62.30;;;;;;5092557;28;20408;-68
2022/08/19 04:24:14;;;;;;;24.67;14.67;;;19.50;62.70;;;;;;5092605;28;20482;-71
2022/08/19 04:26:41;;;;;;;29.87;15.27;;;19.40;54.70;;;;;;5092995;28;20400;-68
2022/08/19 04:29:11;;;;;;;33.00;14.67;;;19.50;53.90;;;;;;5092841;28;20450;-70
2022/08/19 04:31:37;;;;;;;34.97;16.17;;;19.50;48.00;;;;;;5093052;28;20435;-75
2022/08/19 04:34:12;;;;;;;20.27;15.37;;;19.40;41.90;;;;;;5077415;28;20457;-74
2022/08/19 04:36:40;;;;;;;26.77;13.20;;;19.40;41.90;;;;;;5095582;28;20161;-75
2022/08/19 04:39:14;;;;;;;25.10;14.37;;;19.40;42.00;;;;;;5096258;28;20423;-68
2022/08/19 04:44:25;;;;;;;36.80;14.87;;;19.50;42.40;;;;;;5096238;28;20950;-68
2022/08/19 04:46:51;;;;;;;25.30;15.40;;;19.40;41.90;;;;;;5095278;28;20498;-75
2022/08/19 04:49:21;;;;;;;25.73;13.37;;;19.50;42.00;;;;;;5096039;28;20493;-74
2022/08/19 04:51:49;;;;;;;20.53;14.13;;;19.50;42.10;;;;;;5096402;28;20466;-68
2022/08/19 04:54:22;;;;;;;23.90;14.10;;;19.40;42.00;;;;;;5096012;28;20407;-69
2022/08/19 04:56:49;;;;;;;26.67;14.23;;;19.40;41.90;;;;;;5095044;28;20470;-74
2022/08/19 04:59:24;;;;;;;28.93;14.67;;;19.50;42.00;;;;;;5096104;28;20931;-75
2022/08/19 05:01:50;;;;;;;22.20;14.00;;;19.50;42.10;;;;;;5095897;28;20405;-69
2022/08/19 05:04:19;;;;;;;28.37;13.63;;;19.50;42.00;;;;;;5095781;28;20395;-75
2022/08/19 05:06:46;;;;;;;27.20;15.60;;;19.50;42.10;;;;;;5095756;28;20403;-70
2022/08/19 05:09:13;;;;;;;20.07;13.10;;;19.50;42.10;;;;;;5095237;28;20779;-75
2022/08/19 05:11:39;;;;;;;29.50;14.67;;;19.60;42.10;;;;;;5077577;28;20424;-75
2022/08/19 05:14:06;;;;;;;37.57;14.67;;;19.60;42.10;;;;;;5096628;28;20908;-75
2022/08/19 05:16:32;;;;;;;22.50;13.70;;;19.60;42.10;;;;;;5094575;28;20882;-75
2022/08/19 05:24:27;;;;;;;30.93;14.90;;;19.70;38.20;;;;;;5096002;28;20407;-73
2022/08/19 05:26:56;;;;;;;37.10;15.37;;;19.60;29.00;;;;;;5093895;28;20450;-75
2022/08/19 05:29:24;;;;;;;31.30;13.57;;;19.60;31.80;;;;;;5096447;28;20502;-74
2022/08/19 05:32:13;;;;;;;23.73;14.03;;;19.70;31.00;;;;;;5096604;28;20498;-70
2022/08/19 05:34:39;;;;;;;29.47;15.67;;;19.70;30.00;;;;;;5094604;28;20415;-70
2022/08/19 05:37:07;;;;;;;33.53;16.33;;;19.70;25.80;;;;;;5094612;28;20447;-75
2022/08/19 05:39:38;;;;;;;29.77;13.67;;;19.70;23.00;;;;;;5095401;28;20412;-70
2022/08/19 05:42:08;;;;;;;27.03;14.43;;;19.70;24.80;;;;;;5095113;28;20891;-72
2022/08/19 05:44:38;;;;;;;29.93;15.33;;;19.80;24.90;;;;;;5094339;28;20460;-70
2022/08/19 05:47:06;;;;;;;27.40;13.90;;;19.80;17.30;;;;;;5094822;28;20404;-75
2022/08/19 05:49:33;;;;;;;39.33;17.70;;;19.70;17.00;;;;;;5094902;28;20459;-70
2022/08/19 05:52:06;;;;;;;31.83;15.03;;;19.70;13.40;;;;;;5095290;28;20396;-69
2022/08/19 05:54:33;;;;;;;34.93;15.23;;;19.70;11.90;;;;;;5095083;28;20427;-75
2022/08/19 05:57:00;;;;;;;29.27;14.77;;;19.70;12.10;;;;;;5094108;28;20447;-76
2022/08/19 05:59:26;;;;;;;35.37;16.87;;;19.70;7.80;;;;;;5094572;28;20931;-73
2022/08/19 06:01:56;;;;;;;36.53;14.60;;;19.60;5.30;;;;;;5095342;28;20404;-75
2022/08/19 06:04:28;;;;;;;30.07;16.30;;;19.60;9.80;;;;;;5093952;28;20400;-75
2022/08/19 06:06:58;;;;;;;36.80;15.53;;;19.50;9.90;;;;;;5093855;28;20461;-69
2022/08/19 06:09:24;;;;;;;44.90;14.63;;;19.60;16.60;;;;;;5094611;28;20991;-71
2022/08/19 06:11:53;;;;;;;36.03;15.63;;;19.60;18.70;;;;;;5094747;28;20399;-75
2022/08/19 06:14:24;;;;;;;31.23;14.40;;;19.60;18.20;;;;;;5094552;28;20431;-69
2022/08/19 06:16:52;;;;;;;48.87;17.67;;;19.60;21.60;;;;;;5093371;28;20443;-70
2022/08/19 06:19:20;;;;;;;35.47;15.67;;;19.70;22.70;;;;;;5094348;28;20510;-69
2022/08/19 06:21:48;;;;;;;30.87;15.23;;;19.70;23.70;;;;;;5094375;28;20394;-70
2022/08/19 06:24:17;;;;;;;40.23;16.37;;;19.70;25.30;;;;;;5094061;28;20388;-70
2022/08/19 06:26:46;;;;;;;40.67;16.37;;;19.70;23.40;;;;;;5075389;28;20453;-72
2022/08/19 06:29:17;;;;;;;36.03;15.20;;;19.70;24.50;;;;;;5094135;28;20415;-71
2022/08/19 06:31:51;;;;;;;28.00;14.53;;;19.80;30.00;;;;;;5094067;28;20388;-75
2022/08/19 06:34:20;;;;;;;42.93;16.27;;;19.80;28.50;;;;;;5094055;28;20383;-75
2022/08/19 06:36:48;;;;;;;25.63;14.43;;;19.80;29.40;;;;;;5093251;28;20475;-70
2022/08/19 06:39:18;;;;;;;25.17;14.70;;;19.80;25.10;;;;;;5094618;28;20428;-68
2022/08/19 06:41:48;;;;;;;32.50;16.33;;;19.90;28.20;;;;;;5093984;28;20423;-68
2022/08/19 06:44:15;;;;;;;28.27;16.37;;;20.00;25.10;;;;;;5093145;28;20926;-68
2022/08/19 06:46:42;;;;;;;37.80;16.70;;;20.00;22.80;;;;;;5075363;28;20450;-68
2022/08/19 06:49:13;;;;;;;27.70;13.90;;;20.10;18.60;;;;;;5093991;28;20427;-75
2022/08/19 06:51:43;;;;;;;22.27;13.17;;;20.10;15.40;;;;;;5094263;28;20435;-67
2022/08/19 06:54:09;;;;;;;29.37;15.00;;;20.10;15.50;;;;;;5094161;28;20418;-76
2022/08/19 06:56:35;;;;;;;23.40;14.07;;;20.10;17.10;;;;;;5093357;28;20839;-76
2022/08/19 06:59:08;;;;;;;25.03;13.93;;;20.20;16.10;;;;;;5093954;28;20416;-67
2022/08/19 07:01:46;;;;;;;21.57;14.40;;;20.20;15.80;;;;;;5093982;28;20494;-68
2022/08/19 07:04:15;;;;;;;24.30;14.90;;;20.20;4.80;;;;;;5093476;28;20803;-68
2022/08/19 07:06:41;;;;;;;20.70;14.53;;;20.30;1.00;;;;;;5093261;28;20396;-76
2022/08/19 07:09:09;;;;;;;29.77;15.30;;;20.30;6.60;;;;;;5093620;28;20416;-75
2022/08/19 07:11:35;;;;;;;28.20;15.73;;;20.40;8.40;;;;;;5094665;28;20403;-68
2022/08/19 07:14:02;;;;;;;32.67;16.50;;;20.40;8.80;;;;;;5094433;28;20396;-75
2022/08/19 07:16:28;;;;;;;22.63;14.90;;;20.50;4.90;;;;;;5075586;28;20653;-68
2022/08/19 07:18:56;;;;;;;24.27;16.73;;;20.60;1.00;;;;;;5093449;28;20522;-67
2022/08/19 07:21:28;;;;;;;25.63;16.33;;;20.80;1.00;;;;;;5075054;28;20843;-76
2022/08/19 07:23:56;;;;;;;27.90;16.13;;;20.80;1.00;;;;;;5093542;28;20835;-76
2022/08/19 07:26:28;;;;;;;28.70;15.73;;;20.80;1.00;;;;;;5093223;28;20400;-67
2022/08/19 07:28:55;;;;;;;27.30;16.87;;;20.90;1.00;;;;;;5095142;28;20420;-76
2022/08/19 07:31:24;;;;;;;25.33;15.80;;;20.90;1.00;;;;;;5093678;28;20468;-75
2022/08/19 07:33:51;;;;;;;26.43;16.73;;;21.00;1.00;;;;;;5093696;28;20399;-69
2022/08/19 07:36:20;;;;;;;26.43;17.37;;;21.00;1.00;;;;;;5093544;28;20392;-68
2022/08/19 07:38:48;;;;;;;24.30;16.60;;;21.00;1.00;;;;;;5093720;28;20471;-68
2022/08/19 07:41:20;;;;;;;27.60;17.63;;;21.00;1.00;;;;;;5094836;28;20407;-73
2022/08/19 07:43:46;;;;;;;27.10;17.17;;;20.90;1.00;;;;;;5093498;28;20404;-76
2022/08/19 07:46:13;;;;;;;27.27;16.73;;;20.90;1.00;;;;;;5094112;28;20410;-76
2022/08/19 07:48:41;;;;;;;24.53;16.20;;;20.90;1.00;;;;;;5093345;28;20447;-76
2022/08/19 07:51:09;;;;;;;24.13;16.80;;;20.80;1.00;;;;;;5093463;28;20440;-76
2022/08/19 07:53:36;;;;;;;26.43;17.10;;;20.80;1.00;;;;;;5093285;28;20399;-68
2022/08/19 07:56:04;;;;;;;29.93;15.97;;;20.70;1.00;;;;;;5092663;28;20391;-76
2022/08/19 07:58:41;;;;;;;26.03;16.70;;;20.70;1.00;;;;;;5093888;28;20463;-68
2022/08/19 08:01:11;;;;;;;23.60;16.47;;;20.60;1.00;;;;;;5093143;28;20408;-76
2022/08/19 08:09:11;;;;;;;29.63;15.70;;;20.50;1.00;;;;;;5097181;28;20442;-71
2022/08/19 08:11:51;;;;;;;25.70;16.37;;;20.60;1.00;;;;;;5097930;28;20900;-68
2022/08/19 08:14:22;;;;;;;28.60;16.87;;;20.60;1.00;;;;;;5097148;28;20968;-76
2022/08/19 08:16:50;;;;;;;25.13;16.17;;;20.60;1.00;;;;;;5096265;28;20403;-68
2022/08/19 08:19:47;;;;;;;30.30;17.60;;;20.50;1.00;;;;;;5097471;28;20467;-67
2022/08/19 08:25:08;;;;;;;26.87;17.30;;;20.40;1.00;;;;;;5098470;28;20411;-76
2022/08/19 08:27:41;;;;;;;36.97;18.63;;;20.40;1.00;;;;;;5096857;28;20436;-76
2022/08/19 08:30:09;;;;;;;26.70;16.90;;;20.30;1.00;;;;;;5096864;28;20403;-75
2022/08/19 08:32:42;;;;;;;25.30;16.43;;;20.30;1.00;;;;;;5096893;28;20399;-67
2022/08/19 08:35:12;;;;;;;21.33;15.83;;;20.30;1.00;;;;;;5096734;28;20446;-68
2022/08/19 08:37:38;;;;;;;24.97;16.27;;;20.30;1.00;;;;;;5096412;28;20946;-68
2022/08/19 08:40:20;;;;;;;29.80;18.63;;;20.40;1.00;;;;;;5096732;28;20431;-68
2022/08/19 08:43:13;;;;;;;28.17;16.30;;;20.30;1.00;;;;;;5078671;28;20410;-76
2022/08/19 08:45:48;;;;;;;22.13;15.80;;;20.30;1.00;;;;;;5078403;28;20760;-76
2022/08/19 08:48:34;;;;;;;32.47;17.30;;;20.40;1.00;;;;;;5095900;28;20826;-68
2022/08/19 08:51:09;;;;;;;25.53;16.97;;;20.40;1.00;;;;;;5045384;28;20430;-73
2022/08/19 08:53:38;;;;;;;27.20;17.67;;;20.30;1.00;;;;;;5078293;28;20505;-67
2022/08/19 08:56:06;;;;;;;26.87;17.30;;;20.40;1.00;;;;;;5095223;28;20458;-76
2022/08/19 08:59:09;;;;;;;22.47;15.00;;;20.40;1.00;;;;;;5096197;28;20443;-76
2022/08/19 09:01:36;;;;;;;23.63;15.87;;;20.50;1.00;;;;;;5094448;28;20979;-68
2022/08/19 09:04:06;;;;;;;25.97;16.30;;;20.50;1.00;;;;;;5095736;28;20410;-76
2022/08/19 09:06:57;;;;;;;25.27;16.03;;;20.60;1.00;;;;;;5095856;28;20400;-68
2022/08/19 09:09:46;;;;;;;24.60;16.03;;;20.70;1.00;;;;;;5096166;28;20942;-76
2022/08/19 09:12:38;;;;;;;23.60;15.83;;;20.70;1.00;;;;;;5096639;28;20726;-69
2022/08/19 09:15:11;;;;;;;24.37;14.50;;;20.80;1.00;;;;;;5095776;28;20400;-68
2022/08/19 09:17:38;;;;;;;24.17;15.80;;;20.80;1.00;;;;;;5095534;28;20459;-67
2022/08/19 09:20:10;;;;;;;22.10;14.73;;;20.80;1.00;;;;;;5094679;28;20407;-68
2022/08/19 09:22:37;;;;;;;21.50;15.57;;;20.80;1.00;;;;;;5095841;28;20404;-75
2022/08/19 09:25:04;;;;;;;21.60;15.60;;;20.80;1.00;;;;;;5096876;28;20448;-68
2022/08/19 09:27:31;;;;;;;21.07;13.97;;;20.80;1.00;;;;;;5095296;28;20473;-76
2022/08/19 09:29:58;;;;;;;19.40;14.27;;;20.90;1.00;;;;;;5095982;28;20402;-75
2022/08/19 09:32:30;;;;;;;21.90;16.07;;;20.90;1.00;;;;;;5095173;28;20457;-74
2022/08/19 09:34:57;;;;;;;22.20;15.50;;;20.90;1.00;;;;;;5095618;28;20521;-68
2022/08/19 09:37:31;;;;;;;21.00;16.13;;;20.80;1.00;;;;;;5094929;28;20443;-75
2022/08/19 09:39:57;;;;;;;28.97;16.20;;;20.80;1.00;;;;;;5095641;28;20425;-75
2022/08/19 09:42:23;;;;;;;26.60;16.20;;;20.80;1.00;;;;;;5095530;28;20483;-76
2022/08/19 09:44:49;;;;;;;23.57;16.17;;;20.70;1.00;;;;;;5077321;28;20495;-76
2022/08/19 09:47:15;;;;;;;28.17;18.90;;;20.70;1.00;;;;;;5077062;28;20192;-68
2022/08/19 09:49:48;;;;;;;31.57;17.40;;;20.60;1.00;;;;;;5076697;28;20645;-68
2022/08/19 09:52:15;;;;;;;21.30;15.30;;;20.50;1.00;;;;;;5095308;28;20411;-68
2022/08/19 09:54:41;;;;;;;28.53;17.17;;;20.50;1.00;;;;;;5077079;28;20412;-67
2022/08/19 09:57:10;;;;;;;31.63;18.30;;;20.50;1.00;;;;;;5094426;28;20439;-67
2022/08/19 09:59:36;;;;;;;23.83;18.13;;;20.60;1.00;;;;;;5095881;28;20403;-76
2022/08/19 10:02:02;;;;;;;28.43;17.87;;;20.60;1.00;;;;;;5076811;28;20408;-76
2022/08/19 10:05:47;;;;;;;25.63;17.07;;;20.60;1.00;;;;;;5095525;28;20193;-76
2022/08/19 10:07:14;;;;;;;25.90;17.90;;;20.60;1.00;;;;;;5094720;28;20439;-67
2022/08/19 10:09:40;;;;;;;30.67;18.57;;;20.60;1.00;;;;;;5094499;28;20396;-67
2022/08/19 10:12:07;;;;;;;27.57;16.97;;;20.60;1.00;;;;;;5094989;28;20412;-68
2022/08/19 10:14:34;;;;;;;27.93;18.27;;;20.50;1.00;;;;;;5094931;28;20498;-76
2022/08/19 10:17:02;;;;;;;25.50;17.90;;;20.50;1.00;;;;;;5094097;28;20812;-76
2022/08/19 10:19:35;;;;;;;24.47;16.07;;;20.50;1.00;;;;;;5094744;28;20926;-76
2022/08/19 10:22:04;;;;;;;26.50;16.30;;;20.50;1.00;;;;;;5094471;28;20395;-76
2022/08/19 10:24:33;;;;;;;25.27;17.03;;;20.50;1.00;;;;;;5094596;28;20419;-69
2022/08/19 10:27:05;;;;;;;25.03;17.23;;;20.50;1.00;;;;;;5093218;28;20407;-76
2022/08/19 10:29:34;;;;;;;24.50;16.33;;;20.50;1.00;;;;;;5076400;28;20428;-68
2022/08/19 10:32:01;;;;;;;25.10;17.70;;;20.60;1.00;;;;;;5094612;28;20752;-76
2022/08/19 10:34:29;;;;;;;24.97;17.00;;;20.60;1.00;;;;;;5094700;28;20444;-76
2022/08/19 10:36:56;;;;;;;26.63;15.63;;;20.60;1.00;;;;;;5093236;28;20455;-70
2022/08/19 10:39:22;;;;;;;26.03;14.67;;;20.60;1.00;;;;;;5094828;28;20525;-75
2022/08/19 10:41:48;;;;;;;38.90;17.10;;;20.60;1.00;;;;;;5094365;28;20403;-76
2022/08/19 10:44:16;;;;;;;28.07;17.53;;;20.70;1.00;;;;;;5094415;28;20443;-68
2022/08/19 10:46:44;;;;;;;22.77;15.17;;;20.70;1.00;;;;;;5093359;28;20407;-68
2022/08/19 10:49:11;;;;;;;24.50;14.50;;;20.70;1.00;;;;;;5094877;28;20424;-76
2022/08/19 10:56:50;;;;;;;25.90;15.60;;;20.70;1.00;;;;;;5094196;28;20407;-68
2022/08/19 10:57:13;;;;;;;24.40;15.33;;;20.80;1.00;;;;;;5092730;28;20931;-69
2022/08/19 10:59:39;;;;;;;21.17;14.60;;;20.80;1.00;;;;;;5076140;28;20461;-69
2022/08/19 11:02:09;;;;;;;21.93;13.90;;;20.80;1.00;;;;;;5093979;28;20808;-76
2022/08/19 11:04:36;;;;;;;27.00;16.00;;;20.90;1.00;;;;;;5094045;28;20458;-76
2022/08/19 11:07:04;;;;;;;26.10;15.40;;;20.90;1.00;;;;;;5092965;28;20403;-77
2022/08/19 11:09:30;;;;;;;25.93;15.53;;;21.00;1.00;;;;;;5075592;28;20471;-69
2022/08/19 11:11:56;;;;;;;20.97;14.70;;;21.00;1.00;;;;;;5075274;28;20426;-76
2022/08/19 11:14:25;;;;;;;22.67;15.40;;;21.00;1.00;;;;;;5075698;28;20411;-69
2022/08/19 11:16:53;;;;;;;24.67;13.90;;;21.00;1.00;;;;;;5074406;28;20511;-76
2022/08/19 11:19:19;;;;;;;21.57;15.97;;;21.10;1.00;;;;;;5093547;28;20446;-69
2022/08/19 11:21:48;;;;;;;22.07;14.33;;;21.10;1.00;;;;;;5059227;28;20407;-69
2022/08/19 11:24:17;;;;;;;18.43;12.70;;;21.20;1.00;;;;;;5093656;28;20457;-69
2022/08/19 11:26:44;;;;;;;21.27;15.70;;;21.20;1.00;;;;;;5074695;28;20412;-76
2022/08/19 11:29:12;;;;;;;22.60;16.10;;;21.20;1.00;;;;;;5075175;28;20427;-69
2022/08/19 11:31:41;;;;;;;27.57;16.30;;;21.20;1.00;;;;;;5093677;28;20396;-76
2022/08/19 11:34:12;;;;;;;22.30;13.83;;;21.20;1.00;;;;;;5093876;28;20399;-76
2022/08/19 11:36:40;;;;;;;20.70;14.40;;;21.30;1.00;;;;;;5092504;28;20415;-76
2022/08/19 11:39:08;;;;;;;25.27;15.50;;;21.20;1.00;;;;;;5075524;28;20443;-68
2022/08/19 11:41:34;;;;;;;19.93;14.30;;;21.20;1.00;;;;;;5075304;28;20418;-76
2022/08/19 11:43:59;;;;;;;25.10;16.53;;;21.30;1.00;;;;;;5092982;28;20407;-69
2022/08/19 11:46:29;;;;;;;23.63;14.43;;;21.30;1.00;;;;;;5092449;28;20165;-75
2022/08/19 11:48:56;;;;;;;27.17;15.80;;;21.30;1.00;;;;;;5092995;28;20189;-69
2022/08/19 11:51:24;;;;;;;22.13;15.80;;;21.30;1.00;;;;;;5093438;28;20422;-69
2022/08/19 11:53:50;;;;;;;24.70;16.17;;;21.30;1.00;;;;;;5093299;28;20498;-68
2022/08/19 11:56:18;;;;;;;20.47;15.67;;;21.40;1.00;;;;;;5092486;28;20510;-68
2022/08/19 11:58:44;;;;;;;24.83;16.03;;;21.40;1.00;;;;;;5093280;28;20466;-68
2022/08/19 12:01:16;;;;;;;26.30;16.17;;;21.50;1.00;;;;;;5075245;28;20411;-76
2022/08/19 12:03:43;;;;;;;30.10;17.60;;;21.40;1.00;;;;;;5092795;28;20824;-69
2022/08/19 12:06:13;;;;;;;27.23;16.63;;;21.50;1.00;;;;;;5092033;28;20884;-76
2022/08/19 12:08:42;;;;;;;29.80;16.63;;;21.50;1.00;;;;;;5093195;28;20423;-68
2022/08/19 12:11:09;;;;;;;31.00;16.70;;;21.40;1.00;;;;;;5075157;28;20447;-76
2022/08/19 12:14:16;;;;;;;32.63;19.67;;;21.40;1.00;;;;;;5092935;28;20407;-76
2022/08/19 12:17:07;;;;;;;27.80;18.40;;;21.40;1.00;;;;;;5092330;28;20409;-76
2022/08/19 12:19:33;;;;;;;26.43;17.63;;;21.40;1.00;;;;;;5092856;28;20419;-76
2022/08/19 12:22:02;;;;;;;31.00;18.97;;;21.40;1.00;;;;;;5092891;28;20454;-76
2022/08/19 12:24:31;;;;;;;32.53;18.70;;;21.30;1.00;;;;;;5074453;28;20928;-76
2022/08/19 12:26:58;;;;;;;30.57;17.03;;;21.30;1.00;;;;;;5073799;28;20461;-76
2022/08/19 12:29:39;;;;;;;33.10;16.83;;;21.30;1.00;;;;;;5074690;28;20435;-69
2022/08/19 12:32:05;;;;;;;36.70;18.50;;;21.20;1.00;;;;;;5092962;28;20400;-69
2022/08/19 12:34:32;;;;;;;24.77;16.83;;;21.30;1.00;;;;;;5093299;28;20402;-69
2022/08/19 12:37:00;;;;;;;27.43;17.87;;;21.20;1.00;;;;;;5073887;28;20253;-76
2022/08/19 12:39:26;;;;;;;27.50;17.80;;;21.30;1.00;;;;;;5074566;28;20427;-75
2022/08/19 12:41:52;;;;;;;28.90;17.90;;;21.20;1.00;;;;;;5073817;28;20403;-76
2022/08/19 12:44:19;;;;;;;32.53;16.90;;;21.20;1.00;;;;;;5092967;28;20212;-76
2022/08/19 12:46:45;;;;;;;31.63;17.80;;;21.10;1.00;;;;;;5074100;28;20408;-68
2022/08/19 12:49:10;;;;;;;33.27;17.60;;;21.10;1.00;;;;;;5074636;28;21001;-76
2022/08/19 12:51:36;;;;;;;60.40;25.40;;;21.10;1.00;;;;;;5092971;28;20240;-69
2022/08/19 12:54:03;;;;;;;56.37;19.67;;;21.10;1.00;;;;;;5094241;28;20170;-76
2022/08/19 12:56:29;;;;;;;38.43;20.30;;;21.10;1.00;;;;;;5087477;28;20263;-69
2022/08/19 12:58:55;;;;;;;31.93;18.47;;;21.10;1.00;;;;;;5078128;28;20867;-68
2022/08/19 13:01:21;;;;;;;31.30;19.30;;;21.20;1.00;;;;;;5095818;28;20207;-68
2022/08/19 13:03:47;;;;;;;26.17;17.53;;;21.20;1.00;;;;;;5100034;28;20410;-69
2022/08/19 13:06:13;;;;;;;34.40;18.73;;;21.20;1.00;;;;;;5115500;28;20172;-76